sensor_id;sensor_type;location;lat;lon;timestamp;pressure;altitude;pressure_sealevel;temperature;humidity
31585;BME280;18191;51.288;12.390;2023-11-21T00:01:43;49205.78;;;-144.47;98.55
31585;BME280;18191;51.288;12.390;2023-11-21T00:06:34;49223.69;;;-144.47;98.46
31585;BME280;18191;51.288;12.390;2023-11-21T00:11:24;49215.72;;;-144.47;98.70
31585;BME280;18191;51.288;12.390;2023-11-21T00:16:15;49211.75;;;-144.47;98.86
31585;BME280;18191;51.288;12.390;2023-11-21T00:21:06;49215.72;;;-144.47;98.80
31585;BME280;18191;51.288;12.390;2023-11-21T00:25:56;49191.84;;;-144.47;99.06
31585;BME280;18191;51.288;12.390;2023-11-21T00:30:46;49251.53;;;-144.47;98.44
31585;BME280;18191;51.288;12.390;2023-11-21T00:35:37;49173.94;;;-144.47;98.46
31585;BME280;18191;51.288;12.390;2023-11-21T00:40:27;49223.69;;;-144.47;98.51
31585;BME280;18191;51.288;12.390;2023-11-21T00:45:17;49207.78;;;-144.47;98.69
31585;BME280;18191;51.288;12.390;2023-11-21T00:50:08;49227.66;;;-144.47;98.38
31585;BME280;18191;51.288;12.390;2023-11-21T00:54:59;49215.72;;;-144.47;97.95
31585;BME280;18191;51.288;12.390;2023-11-21T00:59:50;49227.66;;;-144.47;98.15
31585;BME280;18191;51.288;12.390;2023-11-21T01:04:40;49164.00;;;-144.47;98.44
31585;BME280;18191;51.288;12.390;2023-11-21T01:09:31;49211.75;;;-144.47;98.52
31585;BME280;18191;51.288;12.390;2023-11-21T01:14:21;49251.53;;;-144.47;98.60
31585;BME280;18191;51.288;12.390;2023-11-21T01:19:11;49203.78;;;-144.47;98.33
31585;BME280;18191;51.288;12.390;2023-11-21T01:24:02;49154.06;;;-144.47;98.28
31585;BME280;18191;51.288;12.390;2023-11-21T01:28:52;49205.78;;;-144.47;98.28
31585;BME280;18191;51.288;12.390;2023-11-21T01:33:43;49227.66;;;-144.47;98.84
31585;BME280;18191;51.288;12.390;2023-11-21T01:38:34;49207.78;;;-144.47;98.32
31585;BME280;18191;51.288;12.390;2023-11-21T01:43:24;49199.81;;;-144.47;98.57
31585;BME280;18191;51.288;12.390;2023-11-21T01:48:15;49195.84;;;-144.47;98.75
31585;BME280;18191;51.288;12.390;2023-11-21T01:53:06;49215.72;;;-144.47;99.50
31585;BME280;18191;51.288;12.390;2023-11-21T01:57:57;49225.66;;;-144.47;99.24
31585;BME280;18191;51.288;12.390;2023-11-21T02:02:48;49187.88;;;-144.47;99.63
31585;BME280;18191;51.288;12.390;2023-11-21T02:07:40;49187.88;;;-144.47;99.62
31585;BME280;18191;51.288;12.390;2023-11-21T02:12:30;49187.88;;;-144.47;99.23
31585;BME280;18191;51.288;12.390;2023-11-21T02:17:20;49191.84;;;-144.47;98.98
31585;BME280;18191;51.288;12.390;2023-11-21T02:22:11;49171.97;;;-144.47;98.98
31585;BME280;18191;51.288;12.390;2023-11-21T02:27:02;49195.84;;;-144.47;98.72
31585;BME280;18191;51.288;12.390;2023-11-21T02:31:52;49223.69;;;-144.47;99.02
31585;BME280;18191;51.288;12.390;2023-11-21T02:36:44;49209.75;;;-144.47;98.95
31585;BME280;18191;51.288;12.390;2023-11-21T02:41:35;49195.84;;;-144.47;98.57
31585;BME280;18191;51.288;12.390;2023-11-21T02:46:25;49199.81;;;-144.47;97.71
31585;BME280;18191;51.288;12.390;2023-11-21T02:51:15;49191.84;;;-144.47;97.05
31585;BME280;18191;51.288;12.390;2023-11-21T02:56:06;49205.78;;;-144.47;97.19
31585;BME280;18191;51.288;12.390;2023-11-21T03:00:56;49197.81;;;-144.47;97.44
31585;BME280;18191;51.288;12.390;2023-11-21T03:05:46;49183.91;;;-144.47;97.86
31585;BME280;18191;51.288;12.390;2023-11-21T03:10:37;49191.84;;;-144.47;97.57
31585;BME280;18191;51.288;12.390;2023-11-21T03:15:27;49187.88;;;-144.47;98.17
31585;BME280;18191;51.288;12.390;2023-11-21T03:20:18;49195.84;;;-144.47;98.26
31585;BME280;18191;51.288;12.390;2023-11-21T03:25:08;49203.78;;;-144.47;99.00
31585;BME280;18191;51.288;12.390;2023-11-21T03:30:01;49215.72;;;-144.47;99.52
31585;BME280;18191;51.288;12.390;2023-11-21T03:34:55;49195.84;;;-144.47;99.97
31585;BME280;18191;51.288;12.390;2023-11-21T03:39:46;49187.88;;;-144.47;100.00
31585;BME280;18191;51.288;12.390;2023-11-21T03:44:37;49175.94;;;-144.47;100.00
31585;BME280;18191;51.288;12.390;2023-11-21T03:49:27;49213.75;;;-144.47;100.00
31585;BME280;18191;51.288;12.390;2023-11-21T03:54:19;49203.78;;;-144.47;99.98
31585;BME280;18191;51.288;12.390;2023-11-21T03:59:09;49227.66;;;-144.47;99.99
31585;BME280;18191;51.288;12.390;2023-11-21T04:04:00;49169.97;;;-144.47;99.56
31585;BME280;18191;51.288;12.390;2023-11-21T04:08:50;49199.81;;;-144.47;99.71
31585;BME280;18191;51.288;12.390;2023-11-21T04:13:40;49223.69;;;-144.47;99.80
31585;BME280;18191;51.288;12.390;2023-11-21T04:18:32;49195.84;;;-144.47;99.17
31585;BME280;18191;51.288;12.390;2023-11-21T04:23:28;49167.97;;;-144.47;98.66
31585;BME280;18191;51.288;12.390;2023-11-21T04:28:18;49199.81;;;-144.47;99.03
31585;BME280;18191;51.288;12.390;2023-11-21T04:33:09;49167.97;;;-144.47;98.96
31585;BME280;18191;51.288;12.390;2023-11-21T04:37:59;49195.84;;;-144.47;99.19
31585;BME280;18191;51.288;12.390;2023-11-21T04:42:50;49217.72;;;-144.47;99.31
31585;BME280;18191;51.288;12.390;2023-11-21T04:47:40;49195.84;;;-144.47;98.98
31585;BME280;18191;51.288;12.390;2023-11-21T04:52:30;49167.97;;;-144.47;98.99
31585;BME280;18191;51.288;12.390;2023-11-21T04:57:21;49187.88;;;-144.47;99.05
31585;BME280;18191;51.288;12.390;2023-11-21T05:02:11;49207.78;;;-144.47;98.10
31585;BME280;18191;51.288;12.390;2023-11-21T05:07:02;49191.84;;;-144.47;98.49
31585;BME280;18191;51.288;12.390;2023-11-21T05:11:54;49193.84;;;-144.47;98.13
31585;BME280;18191;51.288;12.390;2023-11-21T05:16:44;49195.84;;;-144.47;98.67
31585;BME280;18191;51.288;12.390;2023-11-21T05:21:34;49191.84;;;-144.47;98.75
31585;BME280;18191;51.288;12.390;2023-11-21T05:26:26;49181.91;;;-144.47;98.57
31585;BME280;18191;51.288;12.390;2023-11-21T05:31:16;49191.84;;;-144.47;97.25
31585;BME280;18191;51.288;12.390;2023-11-21T05:36:07;49195.84;;;-144.47;97.52
31585;BME280;18191;51.288;12.390;2023-11-21T05:40:57;49187.88;;;-144.47;96.59
31585;BME280;18191;51.288;12.390;2023-11-21T05:45:48;49191.84;;;-144.47;97.17
31585;BME280;18191;51.288;12.390;2023-11-21T05:50:39;49213.75;;;-144.47;97.76
31585;BME280;18191;51.288;12.390;2023-11-21T05:55:29;49181.91;;;-144.47;97.63
31585;BME280;18191;51.288;12.390;2023-11-21T06:00:19;49205.78;;;-144.47;95.74
31585;BME280;18191;51.288;12.390;2023-11-21T06:05:12;49223.69;;;-144.47;96.24
31585;BME280;18191;51.288;12.390;2023-11-21T06:10:07;49167.97;;;-144.47;96.34
31585;BME280;18191;51.288;12.390;2023-11-21T06:15:02;49213.75;;;-144.47;97.35
31585;BME280;18191;51.288;12.390;2023-11-21T06:19:55;49171.97;;;-144.47;97.53
31585;BME280;18191;51.288;12.390;2023-11-21T06:24:45;49203.78;;;-144.47;98.47
31585;BME280;18191;51.288;12.390;2023-11-21T06:29:35;49181.91;;;-144.47;98.79
31585;BME280;18191;51.288;12.390;2023-11-21T06:34:27;49213.75;;;-144.47;99.42
31585;BME280;18191;51.288;12.390;2023-11-21T06:39:18;49175.94;;;-144.47;99.05
31585;BME280;18191;51.288;12.390;2023-11-21T06:44:08;49185.88;;;-144.47;99.50
31585;BME280;18191;51.288;12.390;2023-11-21T06:48:58;49219.72;;;-144.47;100.00
31585;BME280;18191;51.288;12.390;2023-11-21T06:53:49;49195.84;;;-144.47;100.00
31585;BME280;18191;51.288;12.390;2023-11-21T06:58:39;49167.97;;;-144.47;99.42
31585;BME280;18191;51.288;12.390;2023-11-21T07:03:30;49229.66;;;-144.47;99.59
31585;BME280;18191;51.288;12.390;2023-11-21T07:08:21;49175.94;;;-144.47;99.68
31585;BME280;18191;51.288;12.390;2023-11-21T07:13:11;49231.63;;;-144.47;100.00
31585;BME280;18191;51.288;12.390;2023-11-21T07:18:02;49156.03;;;-144.47;99.07
31585;BME280;18191;51.288;12.390;2023-11-21T07:22:52;49227.66;;;-144.47;100.00
31585;BME280;18191;51.288;12.390;2023-11-21T07:27:43;49195.84;;;-144.47;100.00
31585;BME280;18191;51.288;12.390;2023-11-21T07:32:34;49205.78;;;-144.47;100.00
31585;BME280;18191;51.288;12.390;2023-11-21T07:37:25;49207.78;;;-144.47;100.00
31585;BME280;18191;51.288;12.390;2023-11-21T07:42:18;49197.81;;;-144.47;100.00
31585;BME280;18191;51.288;12.390;2023-11-21T07:47:09;49233.63;;;-144.47;100.00
31585;BME280;18191;51.288;12.390;2023-11-21T07:51:59;49173.94;;;-144.47;100.00
31585;BME280;18191;51.288;12.390;2023-11-21T07:56:51;49219.72;;;-144.47;100.00
31585;BME280;18191;51.288;12.390;2023-11-21T08:01:41;49231.63;;;-144.47;100.00
31585;BME280;18191;51.288;12.390;2023-11-21T08:06:33;49154.06;;;-144.47;100.00
31585;BME280;18191;51.288;12.390;2023-11-21T08:11:24;49243.56;;;-144.47;100.00
31585;BME280;18191;51.288;12.390;2023-11-21T08:16:14;49171.97;;;-144.47;100.00
31585;BME280;18191;51.288;12.390;2023-11-21T08:21:05;49215.72;;;-144.47;100.00
31585;BME280;18191;51.288;12.390;2023-11-21T08:25:55;49199.81;;;-144.47;100.00
31585;BME280;18191;51.288;12.390;2023-11-21T08:30:46;49211.75;;;-144.47;100.00
31585;BME280;18191;51.288;12.390;2023-11-21T08:35:37;49215.72;;;-144.47;100.00
31585;BME280;18191;51.288;12.390;2023-11-21T08:40:27;49215.72;;;-144.47;100.00
31585;BME280;18191;51.288;12.390;2023-11-21T08:45:19;49205.78;;;-144.47;100.00
31585;BME280;18191;51.288;12.390;2023-11-21T08:50:09;49215.72;;;-144.47;100.00
31585;BME280;18191;51.288;12.390;2023-11-21T08:55:02;49199.81;;;-144.47;100.00
31585;BME280;18191;51.288;12.390;2023-11-21T08:59:57;49195.84;;;-144.47;100.00
31585;BME280;18191;51.288;12.390;2023-11-21T09:04:48;49251.53;;;-144.47;100.00
31585;BME280;18191;51.288;12.390;2023-11-21T09:09:38;49227.66;;;-144.47;100.00
31585;BME280;18191;51.288;12.390;2023-11-21T09:14:28;49219.72;;;-144.47;100.00
31585;BME280;18191;51.288;12.390;2023-11-21T09:19:19;49158.03;;;-144.47;100.00
31585;BME280;18191;51.288;12.390;2023-11-21T09:24:09;49231.63;;;-144.47;100.00
31585;BME280;18191;51.288;12.390;2023-11-21T09:28:59;49209.75;;;-144.47;100.00
31585;BME280;18191;51.288;12.390;2023-11-21T09:33:50;49227.66;;;-144.47;100.00
31585;BME280;18191;51.288;12.390;2023-11-21T09:38:41;49183.91;;;-144.47;100.00
31585;BME280;18191;51.288;12.390;2023-11-21T09:43:32;49219.72;;;-144.47;100.00
31585;BME280;18191;51.288;12.390;2023-11-21T09:48:24;49203.78;;;-144.47;99.90
31585;BME280;18191;51.288;12.390;2023-11-21T09:53:19;49227.66;;;-144.47;100.00
31585;BME280;18191;51.288;12.390;2023-11-21T09:58:15;49227.66;;;-144.47;99.93
31585;BME280;18191;51.288;12.390;2023-11-21T10:03:05;49217.72;;;-144.47;99.91
31585;BME280;18191;51.288;12.390;2023-11-21T10:07:56;49223.69;;;-144.47;98.43
31585;BME280;18191;51.288;12.390;2023-11-21T10:12:51;49227.66;;;-144.47;99.34
31585;BME280;18191;51.288;12.390;2023-11-21T10:17:44;49239.59;;;-144.47;99.39
31585;BME280;18191;51.288;12.390;2023-11-21T10:22:36;49189.88;;;-144.47;99.44
31585;BME280;18191;51.288;12.390;2023-11-21T10:27:26;49225.66;;;-144.47;99.87
31585;BME280;18191;51.288;12.390;2023-11-21T10:32:17;49235.63;;;-144.47;100.00
31585;BME280;18191;51.288;12.390;2023-11-21T10:37:13;49205.78;;;-144.47;98.62
31585;BME280;18191;51.288;12.390;2023-11-21T10:42:08;49215.72;;;-144.47;98.75
31585;BME280;18191;51.288;12.390;2023-11-21T10:46:59;49227.66;;;-144.47;97.22
31585;BME280;18191;51.288;12.390;2023-11-21T10:51:52;49225.66;;;-144.47;97.98
31585;BME280;18191;51.288;12.390;2023-11-21T10:56:43;49171.97;;;-144.47;96.15
31585;BME280;18191;51.288;12.390;2023-11-21T11:01:34;49223.69;;;-144.47;96.91
31585;BME280;18191;51.288;12.390;2023-11-21T11:06:26;49215.72;;;-144.47;95.87
31585;BME280;18191;51.288;12.390;2023-11-21T11:11:18;49179.91;;;-144.47;95.51
31585;BME280;18191;51.288;12.390;2023-11-21T11:16:08;49213.75;;;-144.47;94.70
31585;BME280;18191;51.288;12.390;2023-11-21T11:21:07;49199.81;;;-144.47;94.69
31585;BME280;18191;51.288;12.390;2023-11-21T11:31:18;49213.75;;;-144.47;94.31
31585;BME280;18191;51.288;12.390;2023-11-21T11:36:24;49223.69;;;-144.47;95.39
31585;BME280;18191;51.288;12.390;2023-11-21T11:41:25;49203.78;;;-144.47;95.49
31585;BME280;18191;51.288;12.390;2023-11-21T11:46:15;49235.63;;;-144.47;93.99
31585;BME280;18191;51.288;12.390;2023-11-21T11:51:10;49160.03;;;-144.47;93.21
31585;BME280;18191;51.288;12.390;2023-11-21T11:56:33;49239.59;;;-144.47;94.41
31585;BME280;18191;51.288;12.390;2023-11-21T12:01:26;49156.03;;;-144.47;96.75
31585;BME280;18191;51.288;12.390;2023-11-21T12:06:17;49183.91;;;-144.47;96.75
31585;BME280;18191;51.288;12.390;2023-11-21T12:11:14;49199.81;;;-144.47;98.04
31585;BME280;18191;51.288;12.390;2023-11-21T12:16:05;49205.78;;;-144.47;97.97
31585;BME280;18191;51.288;12.390;2023-11-21T12:20:56;49235.63;;;-144.47;98.25
31585;BME280;18191;51.288;12.390;2023-11-21T12:25:46;49207.78;;;-144.47;100.00
31585;BME280;18191;51.288;12.390;2023-11-21T12:30:37;49207.78;;;-144.47;98.38
31585;BME280;18191;51.288;12.390;2023-11-21T12:35:29;49231.63;;;-144.47;99.13
31585;BME280;18191;51.288;12.390;2023-11-21T12:40:21;49211.75;;;-144.47;98.63
31585;BME280;18191;51.288;12.390;2023-11-21T12:50:06;49203.78;;;-144.47;97.65
31585;BME280;18191;51.288;12.390;2023-11-21T12:54:56;49171.97;;;-144.47;97.54
31585;BME280;18191;51.288;12.390;2023-11-21T12:59:47;49243.56;;;-144.47;99.42
31585;BME280;18191;51.288;12.390;2023-11-21T13:04:37;49203.78;;;-144.47;99.77
31585;BME280;18191;51.288;12.390;2023-11-21T13:09:29;49199.81;;;-144.47;99.99
31585;BME280;18191;51.288;12.390;2023-11-21T13:14:19;49219.72;;;-144.47;99.72
31585;BME280;18191;51.288;12.390;2023-11-21T13:19:10;49195.84;;;-144.47;100.00
31585;BME280;18191;51.288;12.390;2023-11-21T13:24:00;49205.78;;;-144.47;99.58
31585;BME280;18191;51.288;12.390;2023-11-21T13:28:50;49195.84;;;-144.47;97.66
31585;BME280;18191;51.288;12.390;2023-11-21T13:33:40;49223.69;;;-144.47;96.88
31585;BME280;18191;51.288;12.390;2023-11-21T13:38:33;49255.50;;;-144.47;96.50
31585;BME280;18191;51.288;12.390;2023-11-21T13:43:25;49219.72;;;-144.47;95.36
31585;BME280;18191;51.288;12.390;2023-11-21T13:48:18;49211.75;;;-144.47;94.88
31585;BME280;18191;51.288;12.390;2023-11-21T13:53:18;49227.66;;;-144.47;95.35
31585;BME280;18191;51.288;12.390;2023-11-21T13:58:12;49219.72;;;-144.47;95.00
31585;BME280;18191;51.288;12.390;2023-11-21T14:03:08;49203.78;;;-144.47;92.61
31585;BME280;18191;51.288;12.390;2023-11-21T14:08:06;49215.72;;;-144.47;92.38
31585;BME280;18191;51.288;12.390;2023-11-21T14:12:56;49187.88;;;-144.47;93.24
31585;BME280;18191;51.288;12.390;2023-11-21T14:17:47;49239.59;;;-144.47;92.89
31585;BME280;18191;51.288;12.390;2023-11-21T14:22:37;49239.59;;;-144.47;92.34
31585;BME280;18191;51.288;12.390;2023-11-21T14:27:28;49211.75;;;-144.47;90.90
31585;BME280;18191;51.288;12.390;2023-11-21T14:32:19;49239.59;;;-144.47;92.54
31585;BME280;18191;51.288;12.390;2023-11-21T14:37:09;49199.81;;;-144.47;91.09
31585;BME280;18191;51.288;12.390;2023-11-21T14:42:04;49213.75;;;-144.47;90.10
31585;BME280;18191;51.288;12.390;2023-11-21T14:46:54;49201.81;;;-144.47;90.37
31585;BME280;18191;51.288;12.390;2023-11-21T14:51:47;49207.78;;;-144.47;91.61
31585;BME280;18191;51.288;12.390;2023-11-21T14:56:50;49195.84;;;-144.47;90.08
31585;BME280;18191;51.288;12.390;2023-11-21T15:01:40;49241.59;;;-144.47;89.13
31585;BME280;18191;51.288;12.390;2023-11-21T15:06:45;49167.97;;;-144.47;90.09
31585;BME280;18191;51.288;12.390;2023-11-21T15:11:37;49211.75;;;-144.47;88.95
31585;BME280;18191;51.288;12.390;2023-11-21T15:16:28;49207.78;;;-144.47;88.78
31585;BME280;18191;51.288;12.390;2023-11-21T15:21:19;49195.84;;;-144.47;89.43
31585;BME280;18191;51.288;12.390;2023-11-21T15:26:11;49195.84;;;-144.47;88.23
31585;BME280;18191;51.288;12.390;2023-11-21T15:31:01;49209.75;;;-144.47;87.77
31585;BME280;18191;51.288;12.390;2023-11-21T15:35:54;49199.81;;;-144.47;87.23
31585;BME280;18191;51.288;12.390;2023-11-21T15:40:45;49247.56;;;-144.47;87.86
31585;BME280;18191;51.288;12.390;2023-11-21T15:45:35;49211.75;;;-144.47;87.63
31585;BME280;18191;51.288;12.390;2023-11-21T15:50:26;49215.72;;;-144.47;88.96
31585;BME280;18191;51.288;12.390;2023-11-21T15:55:16;49211.75;;;-144.47;88.98
31585;BME280;18191;51.288;12.390;2023-11-21T16:00:07;49191.84;;;-144.47;88.27
31585;BME280;18191;51.288;12.390;2023-11-21T16:05:06;49187.88;;;-144.47;90.04
31585;BME280;18191;51.288;12.390;2023-11-21T16:09:57;49231.63;;;-144.47;90.45
31585;BME280;18191;51.288;12.390;2023-11-21T16:14:47;49209.75;;;-144.47;91.57
31585;BME280;18191;51.288;12.390;2023-11-21T16:19:38;49215.72;;;-144.47;89.94
31585;BME280;18191;51.288;12.390;2023-11-21T16:24:28;49255.50;;;-144.47;90.07
31585;BME280;18191;51.288;12.390;2023-11-21T16:29:20;49231.63;;;-144.47;90.12
31585;BME280;18191;51.288;12.390;2023-11-21T16:34:28;49237.59;;;-144.47;91.86
31585;BME280;18191;51.288;12.390;2023-11-21T16:39:19;49191.84;;;-144.47;92.33
31585;BME280;18191;51.288;12.390;2023-11-21T16:44:22;49197.81;;;-144.47;91.62
31585;BME280;18191;51.288;12.390;2023-11-21T16:49:13;49199.81;;;-144.47;91.74
31585;BME280;18191;51.288;12.390;2023-11-21T16:54:03;49187.88;;;-144.47;91.16
31585;BME280;18191;51.288;12.390;2023-11-21T16:58:54;49195.84;;;-144.47;91.04
31585;BME280;18191;51.288;12.390;2023-11-21T17:03:44;49209.75;;;-144.47;90.26
31585;BME280;18191;51.288;12.390;2023-11-21T17:08:34;49207.78;;;-144.47;88.19
31585;BME280;18191;51.288;12.390;2023-11-21T17:13:25;49197.81;;;-144.47;88.23
31585;BME280;18191;51.288;12.390;2023-11-21T17:18:16;49237.59;;;-144.47;88.32
31585;BME280;18191;51.288;12.390;2023-11-21T17:23:06;49207.78;;;-144.47;88.47
31585;BME280;18191;51.288;12.390;2023-11-21T17:27:58;49215.72;;;-144.47;88.59
31585;BME280;18191;51.288;12.390;2023-11-21T17:32:48;49247.56;;;-144.47;87.42
31585;BME280;18191;51.288;12.390;2023-11-21T17:37:39;49207.78;;;-144.47;89.86
31585;BME280;18191;51.288;12.390;2023-11-21T17:42:29;49231.63;;;-144.47;88.69
31585;BME280;18191;51.288;12.390;2023-11-21T17:47:20;49185.88;;;-144.47;88.17
31585;BME280;18191;51.288;12.390;2023-11-21T17:52:15;49221.69;;;-144.47;87.86
31585;BME280;18191;51.288;12.390;2023-11-21T17:57:05;49169.97;;;-144.47;90.66
31585;BME280;18191;51.288;12.390;2023-11-21T18:01:55;49231.63;;;-144.47;89.82
31585;BME280;18191;51.288;12.390;2023-11-21T18:06:46;49207.78;;;-144.47;91.40
31585;BME280;18191;51.288;12.390;2023-11-21T18:11:36;49150.06;;;-144.47;91.00
31585;BME280;18191;51.288;12.390;2023-11-21T18:16:26;49235.63;;;-144.47;90.30
31585;BME280;18191;51.288;12.390;2023-11-21T18:21:17;49239.59;;;-144.47;91.72
31585;BME280;18191;51.288;12.390;2023-11-21T18:26:07;49219.72;;;-144.47;90.75
31585;BME280;18191;51.288;12.390;2023-11-21T18:30:57;49199.81;;;-144.47;90.29
31585;BME280;18191;51.288;12.390;2023-11-21T18:35:48;49213.75;;;-144.47;91.04
31585;BME280;18191;51.288;12.390;2023-11-21T18:40:39;49207.78;;;-144.47;92.64
31585;BME280;18191;51.288;12.390;2023-11-21T18:45:29;49211.75;;;-144.47;92.94
31585;BME280;18191;51.288;12.390;2023-11-21T18:50:19;49199.81;;;-144.47;90.87
31585;BME280;18191;51.288;12.390;2023-11-21T18:55:11;49144.09;;;-144.47;91.09
31585;BME280;18191;51.288;12.390;2023-11-21T19:00:01;49227.66;;;-144.47;91.89
31585;BME280;18191;51.288;12.390;2023-11-21T19:04:51;49179.91;;;-144.47;91.19
31585;BME280;18191;51.288;12.390;2023-11-21T19:09:41;49213.75;;;-144.47;90.76
31585;BME280;18191;51.288;12.390;2023-11-21T19:14:32;49160.03;;;-144.47;91.09
31585;BME280;18191;51.288;12.390;2023-11-21T19:19:22;49253.53;;;-144.47;90.42
31585;BME280;18191;51.288;12.390;2023-11-21T19:24:13;49235.63;;;-144.47;89.37
31585;BME280;18191;51.288;12.390;2023-11-21T19:29:03;49187.88;;;-144.47;89.40
31585;BME280;18191;51.288;12.390;2023-11-21T19:33:55;49211.75;;;-144.47;88.43
31585;BME280;18191;51.288;12.390;2023-11-21T19:38:45;49203.78;;;-144.47;87.77
31585;BME280;18191;51.288;12.390;2023-11-21T19:43:36;49191.84;;;-144.47;88.82
31585;BME280;18191;51.288;12.390;2023-11-21T19:48:26;49219.72;;;-144.47;88.61
31585;BME280;18191;51.288;12.390;2023-11-21T19:53:16;49219.72;;;-144.47;90.86
31585;BME280;18191;51.288;12.390;2023-11-21T19:58:06;49219.72;;;-144.47;90.93
31585;BME280;18191;51.288;12.390;2023-11-21T20:02:57;49203.78;;;-144.47;90.23
31585;BME280;18191;51.288;12.390;2023-11-21T20:07:47;49235.63;;;-144.47;91.05
31585;BME280;18191;51.288;12.390;2023-11-21T20:12:37;49219.72;;;-144.47;92.91
31585;BME280;18191;51.288;12.390;2023-11-21T20:17:28;49239.59;;;-144.47;93.45
31585;BME280;18191;51.288;12.390;2023-11-21T20:22:18;49160.03;;;-144.47;93.70
31585;BME280;18191;51.288;12.390;2023-11-21T20:27:08;49199.81;;;-144.47;94.59
31585;BME280;18191;51.288;12.390;2023-11-21T20:31:59;49207.78;;;-144.47;94.11
31585;BME280;18191;51.288;12.390;2023-11-21T20:36:51;49219.72;;;-144.47;93.85
31585;BME280;18191;51.288;12.390;2023-11-21T20:41:41;49227.66;;;-144.47;93.56
31585;BME280;18191;51.288;12.390;2023-11-21T20:46:32;49199.81;;;-144.47;93.20
31585;BME280;18191;51.288;12.390;2023-11-21T20:51:22;49215.72;;;-144.47;93.52
31585;BME280;18191;51.288;12.390;2023-11-21T20:56:12;49219.72;;;-144.47;94.48
31585;BME280;18191;51.288;12.390;2023-11-21T21:01:02;49207.78;;;-144.47;94.40
31585;BME280;18191;51.288;12.390;2023-11-21T21:05:53;49217.72;;;-144.47;94.20
31585;BME280;18191;51.288;12.390;2023-11-21T21:10:43;49199.81;;;-144.47;93.94
31585;BME280;18191;51.288;12.390;2023-11-21T21:15:33;49227.66;;;-144.47;94.39
31585;BME280;18191;51.288;12.390;2023-11-21T21:20:25;49215.72;;;-144.47;93.83
31585;BME280;18191;51.288;12.390;2023-11-21T21:25:15;49179.91;;;-144.47;93.90
31585;BME280;18191;51.288;12.390;2023-11-21T21:30:06;49191.84;;;-144.47;93.73
31585;BME280;18191;51.288;12.390;2023-11-21T21:34:57;49207.78;;;-144.47;93.74
31585;BME280;18191;51.288;12.390;2023-11-21T21:39:47;49175.94;;;-144.47;94.43
31585;BME280;18191;51.288;12.390;2023-11-21T21:44:38;49191.84;;;-144.47;94.84
31585;BME280;18191;51.288;12.390;2023-11-21T21:49:29;49203.78;;;-144.47;93.06
31585;BME280;18191;51.288;12.390;2023-11-21T21:54:19;49211.75;;;-144.47;93.17
31585;BME280;18191;51.288;12.390;2023-11-21T21:59:10;49187.88;;;-144.47;94.09
31585;BME280;18191;51.288;12.390;2023-11-21T22:04:03;49207.78;;;-144.47;92.41
31585;BME280;18191;51.288;12.390;2023-11-21T22:08:53;49217.72;;;-144.47;91.08
31585;BME280;18191;51.288;12.390;2023-11-21T22:13:43;49221.69;;;-144.47;90.45
31585;BME280;18191;51.288;12.390;2023-11-21T22:18:34;49199.81;;;-144.47;91.20
31585;BME280;18191;51.288;12.390;2023-11-21T22:23:24;49181.91;;;-144.47;90.60
31585;BME280;18191;51.288;12.390;2023-11-21T22:28:14;49167.97;;;-144.47;90.04
31585;BME280;18191;51.288;12.390;2023-11-21T22:33:05;49239.59;;;-144.47;90.52
31585;BME280;18191;51.288;12.390;2023-11-21T22:37:56;49203.78;;;-144.47;87.98
31585;BME280;18191;51.288;12.390;2023-11-21T22:42:46;49207.78;;;-144.47;87.09
31585;BME280;18191;51.288;12.390;2023-11-21T22:47:36;49199.81;;;-144.47;86.99
31585;BME280;18191;51.288;12.390;2023-11-21T22:52:27;49195.84;;;-144.47;88.47
31585;BME280;18191;51.288;12.390;2023-11-21T22:57:17;49207.78;;;-144.47;86.73
31585;BME280;18191;51.288;12.390;2023-11-21T23:02:08;49171.97;;;-144.47;87.04
31585;BME280;18191;51.288;12.390;2023-11-21T23:06:58;49215.72;;;-144.47;87.02
31585;BME280;18191;51.288;12.390;2023-11-21T23:11:49;49181.91;;;-144.47;85.83
31585;BME280;18191;51.288;12.390;2023-11-21T23:16:39;49179.91;;;-144.47;85.68
31585;BME280;18191;51.288;12.390;2023-11-21T23:21:29;49215.72;;;-144.47;85.40
31585;BME280;18191;51.288;12.390;2023-11-21T23:26:20;49211.75;;;-144.47;84.91
31585;BME280;18191;51.288;12.390;2023-11-21T23:31:10;49211.75;;;-144.47;84.32
31585;BME280;18191;51.288;12.390;2023-11-21T23:36:00;49191.84;;;-144.47;83.82
31585;BME280;18191;51.288;12.390;2023-11-21T23:40:51;49183.91;;;-144.47;84.13
31585;BME280;18191;51.288;12.390;2023-11-21T23:45:41;49203.78;;;-144.47;82.05
31585;BME280;18191;51.288;12.390;2023-11-21T23:50:32;49211.75;;;-144.47;84.20
31585;BME280;18191;51.288;12.390;2023-11-21T23:55:22;49179.91;;;-144.47;82.60
